Time;durP1;ratioP1;P1;durP2;ratioP2;P2;SDS_P1;SDS_P2;PMS_P1;PMS_P2;Temp;Humidity;BMP_temperature;BMP_pressure;BME280_temperature;BME280_humidity;BME280_pressure;Samples;Min_cycle;Max_cycle;Signal;HPM_P1;HPM_P2
2024/01/12 00:00:23;;;;;;;18.57;3.20;;;2.20;99.90;;;;;;5092851;28;20123;-79
2024/01/12 00:02:49;;;;;;;19.03;4.30;;;2.20;99.90;;;;;;5094362;28;20056;-79
2024/01/12 00:05:15;;;;;;;16.07;4.23;;;2.20;99.90;;;;;;5076101;28;20052;-79
2024/01/12 00:07:40;;;;;;;18.90;3.90;;;2.30;99.90;;;;;;5093991;28;20059;-79
2024/01/12 00:10:08;;;;;;;21.77;4.50;;;2.30;99.90;;;;;;5093706;28;20097;-79
2024/01/12 00:12:34;;;;;;;22.00;5.47;;;2.30;99.90;;;;;;5092738;28;20123;-79
2024/01/12 00:15:00;;;;;;;21.63;5.30;;;2.30;99.90;;;;;;5093615;28;20505;-79
2024/01/12 00:17:26;;;;;;;27.73;5.57;;;2.30;99.90;;;;;;5093795;28;20144;-79
2024/01/12 00:19:52;;;;;;;18.40;4.60;;;2.20;99.90;;;;;;5094133;28;20278;-79
2024/01/12 00:22:17;;;;;;;16.23;4.40;;;2.20;99.90;;;;;;5092309;28;20047;-79
2024/01/12 00:24:43;;;;;;;19.63;5.00;;;2.20;99.90;;;;;;5092770;28;20130;-79
2024/01/12 00:27:09;;;;;;;21.90;4.83;;;2.20;99.90;;;;;;5093369;28;20039;-78
2024/01/12 00:29:34;;;;;;;16.57;4.20;;;2.20;99.90;;;;;;5092453;28;20148;-78
2024/01/12 00:32:00;;;;;;;21.90;5.53;;;2.10;99.90;;;;;;5091239;28;20062;-78
2024/01/12 00:34:26;;;;;;;17.07;5.40;;;2.20;99.90;;;;;;5091394;28;20044;-78
2024/01/12 00:36:53;;;;;;;25.00;5.67;;;2.10;99.90;;;;;;5090399;28;20051;-78
2024/01/12 00:39:19;;;;;;;15.82;4.80;;;2.10;99.90;;;;;;5091403;28;20105;-78
2024/01/12 00:41:45;;;;;;;22.67;5.25;;;2.10;99.90;;;;;;5091544;28;20048;-78
2024/01/12 00:44:11;;;;;;;20.50;5.60;;;2.20;99.90;;;;;;5091210;28;20117;-78
2024/01/12 00:46:36;;;;;;;17.97;5.00;;;2.20;99.90;;;;;;5091590;28;20051;-78
2024/01/12 00:49:02;;;;;;;19.10;5.30;;;2.10;99.90;;;;;;5093448;28;20090;-78
2024/01/12 00:51:28;;;;;;;15.82;5.15;;;2.10;99.90;;;;;;5091732;28;20097;-78
2024/01/12 00:53:54;;;;;;;18.43;6.63;;;2.10;99.90;;;;;;5093230;28;20044;-78
2024/01/12 00:56:20;;;;;;;20.37;6.83;;;2.10;99.90;;;;;;5091838;28;20055;-78
2024/01/12 00:58:45;;;;;;;17.42;5.55;;;2.10;99.90;;;;;;5093171;28;20088;-79
2024/01/12 01:01:11;;;;;;;17.50;5.10;;;2.10;99.90;;;;;;5092134;28;20071;-78
2024/01/12 01:03:37;;;;;;;16.93;6.27;;;2.00;99.90;;;;;;5093062;28;20497;-78
2024/01/12 01:06:04;;;;;;;16.85;5.93;;;2.00;99.90;;;;;;5093169;28;20080;-78
2024/01/12 01:08:30;;;;;;;17.58;5.45;;;2.00;99.90;;;;;;5092863;28;20489;-78
2024/01/12 01:10:55;;;;;;;19.07;5.17;;;2.00;99.90;;;;;;5093333;28;20050;-78
2024/01/12 01:13:21;;;;;;;23.93;6.40;;;2.00;99.90;;;;;;5092831;28;20387;-78
2024/01/12 01:15:47;;;;;;;16.27;5.97;;;1.90;99.90;;;;;;5093315;28;20497;-78
2024/01/12 01:18:15;;;;;;;22.50;6.32;;;1.90;99.90;;;;;;5092908;28;20040;-78
2024/01/12 01:20:41;;;;;;;14.85;6.00;;;1.90;99.90;;;;;;5093120;28;20128;-78
2024/01/12 01:23:06;;;;;;;16.67;5.90;;;1.90;99.90;;;;;;5092971;28;20135;-78
2024/01/12 01:25:32;;;;;;;19.37;6.20;;;1.80;99.90;;;;;;5092747;28;20047;-78
2024/01/12 01:27:58;;;;;;;19.97;6.87;;;1.80;99.90;;;;;;5091847;28;20048;-77
2024/01/12 01:30:24;;;;;;;25.10;7.50;;;1.80;99.90;;;;;;5091555;28;20059;-77
2024/01/12 01:32:49;;;;;;;17.10;5.93;;;1.90;99.90;;;;;;5092753;28;20048;-77
2024/01/12 01:35:16;;;;;;;16.27;6.43;;;1.80;99.90;;;;;;5092901;28;20048;-77
2024/01/12 01:37:43;;;;;;;17.30;6.03;;;1.80;99.90;;;;;;5092113;28;20052;-77
2024/01/12 01:40:08;;;;;;;14.98;6.07;;;1.80;99.90;;;;;;5092785;28;20048;-77
2024/01/12 01:42:34;;;;;;;19.50;7.10;;;1.80;99.90;;;;;;5092594;28;20101;-77
2024/01/12 01:45:02;;;;;;;18.63;7.32;;;1.80;99.90;;;;;;5092630;28;20497;-77
2024/01/12 01:47:28;;;;;;;23.75;7.28;;;1.80;99.90;;;;;;5092777;28;20400;-77
2024/01/12 01:49:56;;;;;;;22.17;6.60;;;1.80;99.90;;;;;;5095047;28;20056;-76
2024/01/12 01:52:25;;;;;;;18.90;5.57;;;1.80;99.90;;;;;;5096663;28;20468;-77
2024/01/12 01:54:56;;;;;;;20.27;6.57;;;1.80;99.90;;;;;;5095379;28;20503;-77
2024/01/12 01:57:24;;;;;;;16.80;5.70;;;1.80;99.90;;;;;;5096167;28;20069;-77
2024/01/12 01:59:50;;;;;;;23.20;6.65;;;1.80;99.90;;;;;;5096533;28;20055;-77
2024/01/12 02:02:16;;;;;;;19.17;6.25;;;1.90;99.90;;;;;;5096408;28;20040;-78
2024/01/12 02:04:41;;;;;;;17.83;5.93;;;1.80;99.90;;;;;;5096846;28;20119;-78
2024/01/12 02:07:07;;;;;;;18.77;6.00;;;1.80;99.90;;;;;;5096468;28;20615;-77
2024/01/12 02:09:35;;;;;;;21.53;7.00;;;1.80;99.90;;;;;;5096068;28;20052;-77
2024/01/12 02:12:04;;;;;;;19.45;6.65;;;1.80;99.90;;;;;;5096143;28;20282;-77
2024/01/12 02:14:30;;;;;;;21.02;6.43;;;1.70;99.90;;;;;;5095126;28;20144;-77
2024/01/12 02:16:56;;;;;;;30.92;7.07;;;1.70;99.90;;;;;;5096134;28;20051;-77
2024/01/12 02:19:22;;;;;;;24.58;6.22;;;1.70;99.90;;;;;;5095927;28;20051;-77
2024/01/12 02:21:47;;;;;;;21.70;6.43;;;1.70;99.90;;;;;;5095025;28;20397;-77
2024/01/12 02:24:13;;;;;;;21.13;6.57;;;1.70;99.90;;;;;;5095925;28;20108;-76
2024/01/12 02:26:39;;;;;;;17.10;6.60;;;1.70;99.90;;;;;;5094871;28;20398;-76
2024/01/12 02:29:05;;;;;;;19.30;7.40;;;1.70;99.90;;;;;;5094321;28;20044;-76
2024/01/12 02:31:31;;;;;;;17.03;6.67;;;1.70;99.90;;;;;;5095115;28;20044;-76
2024/01/12 02:33:57;;;;;;;21.97;6.60;;;1.70;99.90;;;;;;5092670;28;20711;-77
2024/01/12 02:36:26;;;;;;;14.77;6.37;;;1.70;99.90;;;;;;5093167;28;20056;-77
2024/01/12 02:38:52;;;;;;;17.77;6.97;;;1.70;99.90;;;;;;5093473;28;20052;-77
2024/01/12 02:41:18;;;;;;;18.30;7.37;;;1.70;99.90;;;;;;5093610;28;20444;-77
2024/01/12 02:43:44;;;;;;;19.30;6.57;;;1.70;99.90;;;;;;5093667;28;20048;-77
2024/01/12 02:46:10;;;;;;;22.52;7.43;;;1.70;99.90;;;;;;5093834;28;20055;-77
2024/01/12 02:48:36;;;;;;;18.73;7.33;;;1.80;99.90;;;;;;5095208;28;20047;-77
2024/01/12 02:51:01;;;;;;;15.57;7.77;;;1.70;99.90;;;;;;5094084;28;20520;-77
2024/01/12 02:53:27;;;;;;;22.37;7.50;;;1.70;99.90;;;;;;5095079;28;20607;-77
2024/01/12 02:55:53;;;;;;;22.87;7.43;;;1.70;99.90;;;;;;5095463;28;20123;-77
2024/01/12 02:58:19;;;;;;;19.60;8.03;;;1.70;99.90;;;;;;5095532;28;20048;-77
2024/01/12 03:00:44;;;;;;;17.50;7.17;;;1.70;99.90;;;;;;5094056;28;20375;-77
2024/01/12 03:03:10;;;;;;;30.30;8.83;;;1.70;99.90;;;;;;5095433;28;20051;-77
2024/01/12 03:05:36;;;;;;;18.37;7.80;;;1.70;99.90;;;;;;5095009;28;20032;-77
2024/01/12 03:08:02;;;;;;;19.50;8.90;;;1.60;99.90;;;;;;5095015;28;20040;-77
2024/01/12 03:10:27;;;;;;;21.97;7.70;;;1.60;99.90;;;;;;5077191;28;20479;-77
2024/01/12 03:12:53;;;;;;;24.23;9.03;;;1.60;99.90;;;;;;5095147;28;20119;-76
2024/01/12 03:15:19;;;;;;;20.23;8.37;;;1.50;99.90;;;;;;5094948;28;20097;-77
2024/01/12 03:17:45;;;;;;;25.33;8.23;;;1.50;99.90;;;;;;5094880;28;20886;-77
2024/01/12 03:20:10;;;;;;;18.10;8.40;;;1.50;99.90;;;;;;5094947;28;20050;-77
2024/01/12 03:22:36;;;;;;;25.10;9.50;;;1.50;99.90;;;;;;5094534;28;20070;-77
2024/01/12 03:25:02;;;;;;;21.67;7.90;;;1.50;99.90;;;;;;5094966;28;20052;-77
2024/01/12 03:27:28;;;;;;;21.50;7.13;;;1.50;99.90;;;;;;5093677;28;20512;-78
2024/01/12 03:29:54;;;;;;;25.93;8.23;;;1.40;99.90;;;;;;5094739;28;20044;-77
2024/01/12 03:32:22;;;;;;;26.93;9.97;;;1.40;99.90;;;;;;5093860;28;20083;-77
2024/01/12 03:34:48;;;;;;;22.48;8.77;;;1.40;99.90;;;;;;5094426;28;20048;-77
2024/01/12 03:37:14;;;;;;;20.13;8.87;;;1.30;99.90;;;;;;5094373;28;20047;-77
2024/01/12 03:39:40;;;;;;;18.70;7.73;;;1.30;99.90;;;;;;5094228;28;20044;-77
2024/01/12 03:42:06;;;;;;;21.40;8.00;;;1.30;99.90;;;;;;5094617;28;20044;-77
2024/01/12 03:44:31;;;;;;;16.27;7.95;;;1.20;99.90;;;;;;5094275;28;20048;-77
2024/01/12 03:46:57;;;;;;;23.47;7.70;;;1.20;99.90;;;;;;5094575;28;20484;-77
2024/01/12 03:49:23;;;;;;;16.50;7.50;;;1.20;99.90;;;;;;5094190;28;20047;-77
2024/01/12 03:51:53;;;;;;;13.60;6.80;;;1.10;99.90;;;;;;5093856;28;20505;-77
2024/01/12 03:54:25;;;;;;;12.43;7.22;;;1.10;99.90;;;;;;5094558;28;20070;-77
2024/01/12 03:56:52;;;;;;;16.48;6.88;;;1.10;99.90;;;;;;5094128;28;20044;-76
2024/01/12 03:59:18;;;;;;;14.25;6.82;;;1.00;99.90;;;;;;5093307;28;20056;-76
2024/01/12 04:01:47;;;;;;;23.03;8.37;;;1.10;99.90;;;;;;5092804;28;20139;-76
2024/01/12 04:04:13;;;;;;;19.98;8.60;;;1.10;99.90;;;;;;5094019;28;20047;-76
2024/01/12 04:06:40;;;;;;;22.48;9.40;;;1.10;99.90;;;;;;5092771;28;20059;-77
2024/01/12 04:09:06;;;;;;;20.63;9.50;;;1.20;99.90;;;;;;5094380;28;20051;-76
2024/01/12 04:11:32;;;;;;;18.77;8.65;;;1.20;99.90;;;;;;5092547;28;20044;-77
2024/01/12 04:13:58;;;;;;;19.60;6.83;;;1.10;99.90;;;;;;5094067;28;20044;-77
2024/01/12 04:16:23;;;;;;;16.50;7.03;;;1.20;99.90;;;;;;5093800;28;20043;-77
2024/01/12 04:18:49;;;;;;;24.20;9.73;;;1.20;99.90;;;;;;5092685;28;20044;-77
2024/01/12 04:21:15;;;;;;;19.63;8.43;;;1.30;99.90;;;;;;5093697;28;20143;-77
2024/01/12 04:23:41;;;;;;;24.02;9.18;;;1.20;99.90;;;;;;5093664;28;20055;-77
2024/01/12 04:26:07;;;;;;;23.33;9.93;;;1.30;99.90;;;;;;5092823;28;20051;-77
2024/01/12 04:28:33;;;;;;;28.92;9.05;;;1.30;99.90;;;;;;5092696;28;20142;-76
2024/01/12 04:31:02;;;;;;;21.77;9.07;;;1.30;99.90;;;;;;5092239;28;20473;-76
2024/01/12 04:33:29;;;;;;;22.70;9.90;;;1.30;99.90;;;;;;5093582;28;20048;-77
2024/01/12 04:35:54;;;;;;;20.05;8.40;;;1.40;99.90;;;;;;5093215;28;20079;-77
2024/01/12 04:38:20;;;;;;;23.77;9.13;;;1.40;99.90;;;;;;5093674;28;20486;-77
2024/01/12 04:40:46;;;;;;;23.37;9.87;;;1.40;99.90;;;;;;5093420;28;20122;-77
2024/01/12 04:43:11;;;;;;;21.83;8.33;;;1.40;99.90;;;;;;5093478;28;20048;-77
2024/01/12 04:45:37;;;;;;;19.63;8.60;;;1.50;99.90;;;;;;5093244;28;20040;-77
2024/01/12 04:48:03;;;;;;;20.90;9.10;;;1.50;99.90;;;;;;5092255;28;20044;-77
2024/01/12 04:50:29;;;;;;;26.83;10.33;;;1.40;99.90;;;;;;5093201;28;20548;-76
2024/01/12 04:52:54;;;;;;;23.77;9.53;;;1.50;99.90;;;;;;5092143;28;20052;-77
2024/01/12 04:55:21;;;;;;;25.53;9.60;;;1.50;99.90;;;;;;5093242;28;20048;-77
2024/01/12 04:57:46;;;;;;;22.42;8.98;;;1.50;99.90;;;;;;5093076;28;20481;-76
2024/01/12 05:00:12;;;;;;;24.33;8.53;;;1.50;99.90;;;;;;5093686;28;20048;-77
2024/01/12 05:02:38;;;;;;;17.23;8.88;;;1.50;99.90;;;;;;5092906;28;20044;-77
2024/01/12 05:05:05;;;;;;;22.10;8.47;;;1.60;99.90;;;;;;5092973;28;20135;-77
2024/01/12 05:07:31;;;;;;;24.30;9.77;;;1.50;99.90;;;;;;5093212;28;20087;-77
2024/01/12 05:09:56;;;;;;;25.77;10.30;;;1.50;99.90;;;;;;5092068;28;20083;-77
2024/01/12 05:12:22;;;;;;;21.53;8.93;;;1.50;99.90;;;;;;5093096;28;20048;-77
2024/01/12 05:14:48;;;;;;;22.07;9.03;;;1.50;99.90;;;;;;5092849;28;20046;-77
2024/01/12 05:17:14;;;;;;;23.47;10.67;;;1.50;99.90;;;;;;5093068;28;20032;-77
2024/01/12 05:19:40;;;;;;;22.00;10.03;;;1.50;99.90;;;;;;5092839;28;20504;-76
2024/01/12 05:22:07;;;;;;;19.77;9.90;;;1.60;99.90;;;;;;5093060;28;20282;-76
2024/01/12 05:24:33;;;;;;;24.30;9.73;;;1.60;99.90;;;;;;5094908;28;20052;-76
2024/01/12 05:26:59;;;;;;;21.13;10.80;;;1.60;99.90;;;;;;5096929;28;20087;-77
2024/01/12 05:29:25;;;;;;;22.60;10.93;;;1.60;99.90;;;;;;5096345;28;20497;-76
2024/01/12 05:31:51;;;;;;;22.57;11.50;;;1.60;99.90;;;;;;5096553;28;20335;-77
2024/01/12 05:34:16;;;;;;;25.07;11.13;;;1.60;99.90;;;;;;5096841;28;20151;-77
2024/01/12 05:36:42;;;;;;;31.40;11.60;;;1.60;99.90;;;;;;5096783;28;20550;-77
2024/01/12 05:39:08;;;;;;;25.53;10.40;;;1.70;99.90;;;;;;5096823;28;20063;-77
2024/01/12 05:41:34;;;;;;;20.45;10.18;;;1.60;99.90;;;;;;5078951;28;20071;-77
2024/01/12 05:44:00;;;;;;;26.47;11.60;;;1.60;99.90;;;;;;5096633;28;20094;-77
2024/01/12 05:46:25;;;;;;;25.83;9.67;;;1.70;99.90;;;;;;5096715;28;20047;-77
2024/01/12 05:48:51;;;;;;;24.87;9.73;;;1.70;99.90;;;;;;5061825;28;20077;-77
2024/01/12 05:51:17;;;;;;;32.57;11.03;;;1.70;99.90;;;;;;5096684;28;20044;-77
2024/01/12 05:53:44;;;;;;;21.60;8.90;;;1.70;99.90;;;;;;5096660;28;20048;-77
2024/01/12 05:56:10;;;;;;;31.52;8.57;;;1.70;99.90;;;;;;5096631;28;20048;-77
2024/01/12 05:58:35;;;;;;;27.83;9.73;;;1.70;99.90;;;;;;5095743;28;20040;-77
2024/01/12 06:01:01;;;;;;;25.37;9.70;;;1.70;99.90;;;;;;5096361;28;20044;-77
2024/01/12 06:03:29;;;;;;;25.20;8.13;;;1.70;99.90;;;;;;5095354;28;20051;-77
2024/01/12 06:05:56;;;;;;;24.90;8.95;;;1.90;99.90;;;;;;5096349;28;20123;-77
2024/01/12 06:08:21;;;;;;;34.05;9.82;;;1.80;99.90;;;;;;5096452;28;20438;-77
2024/01/12 06:10:47;;;;;;;29.33;9.50;;;1.80;99.90;;;;;;5094932;28;20128;-77
2024/01/12 06:13:13;;;;;;;25.25;8.45;;;1.80;99.90;;;;;;5096204;28;20051;-77
2024/01/12 06:15:39;;;;;;;26.57;9.20;;;1.80;99.90;;;;;;5096074;28;20420;-76
2024/01/12 06:18:05;;;;;;;21.27;8.73;;;1.80;99.90;;;;;;5096120;28;20052;-77
2024/01/12 06:20:31;;;;;;;29.60;8.17;;;1.80;99.90;;;;;;5096167;28;20105;-76
2024/01/12 06:22:57;;;;;;;25.47;8.93;;;1.90;99.90;;;;;;5095883;28;20084;-76
2024/01/12 06:25:23;;;;;;;26.95;8.68;;;1.90;99.90;;;;;;5095023;28;20131;-76
2024/01/12 06:27:49;;;;;;;26.42;8.63;;;1.90;99.90;;;;;;5095856;28;20048;-76
2024/01/12 06:30:16;;;;;;;31.27;8.07;;;1.90;99.90;;;;;;5095925;28;20407;-76
2024/01/12 06:32:42;;;;;;;23.92;7.93;;;1.90;99.90;;;;;;5095767;28;20547;-76
2024/01/12 06:35:08;;;;;;;26.77;8.15;;;1.90;99.90;;;;;;5095460;28;20097;-77
2024/01/12 06:37:34;;;;;;;26.63;8.32;;;2.00;99.90;;;;;;5095761;28;20387;-76
2024/01/12 06:40:00;;;;;;;24.40;7.93;;;2.00;99.90;;;;;;5095299;28;20055;-76
2024/01/12 06:42:28;;;;;;;25.50;7.03;;;2.00;99.90;;;;;;5094558;28;20050;-76
2024/01/12 06:44:54;;;;;;;28.92;8.38;;;1.90;99.90;;;;;;5095373;28;20047;-76
2024/01/12 06:47:20;;;;;;;27.23;7.32;;;2.00;99.90;;;;;;5095623;28;20048;-76
2024/01/12 06:49:46;;;;;;;25.87;7.33;;;2.00;99.90;;;;;;5095479;28;20067;-76
2024/01/12 06:52:12;;;;;;;26.77;6.60;;;2.00;99.90;;;;;;5095359;28;20063;-77
2024/01/12 06:54:42;;;;;;;29.48;6.45;;;2.10;99.90;;;;;;5095444;28;20509;-76
2024/01/12 06:57:08;;;;;;;28.50;6.50;;;2.10;99.90;;;;;;5093976;28;20048;-77
2024/01/12 06:59:34;;;;;;;30.15;6.85;;;2.10;99.90;;;;;;5094145;28;20047;-77
2024/01/12 07:01:59;;;;;;;19.57;6.23;;;2.10;99.90;;;;;;5095182;28;20040;-77
2024/01/12 07:04:25;;;;;;;26.13;5.83;;;2.10;99.90;;;;;;5095319;28;20040;-77
2024/01/12 07:06:52;;;;;;;32.27;7.00;;;2.10;99.90;;;;;;5095377;28;20040;-78
2024/01/12 07:09:21;;;;;;;23.98;6.88;;;2.10;99.90;;;;;;5095240;28;20505;-77
2024/01/12 07:11:47;;;;;;;22.48;6.75;;;2.10;99.90;;;;;;5095136;28;20037;-77
2024/01/12 07:14:14;;;;;;;34.50;6.60;;;2.20;99.90;;;;;;5093620;28;20044;-77
2024/01/12 07:16:40;;;;;;;23.95;6.00;;;2.20;99.90;;;;;;5077188;28;20040;-77
2024/01/12 07:19:06;;;;;;;25.25;6.32;;;2.20;99.90;;;;;;5094851;28;20052;-77
2024/01/12 07:21:33;;;;;;;23.13;5.88;;;2.20;99.90;;;;;;5095156;28;20100;-77
2024/01/12 07:23:59;;;;;;;25.10;5.32;;;2.20;99.90;;;;;;5094643;28;20051;-77
2024/01/12 07:26:25;;;;;;;25.80;4.72;;;2.20;99.90;;;;;;5094810;28;20044;-77
2024/01/12 07:28:51;;;;;;;25.60;5.53;;;2.30;99.90;;;;;;5094503;28;20054;-77
2024/01/12 07:31:17;;;;;;;22.17;5.03;;;2.20;99.90;;;;;;5094625;28;20374;-77
2024/01/12 07:33:43;;;;;;;28.43;5.00;;;2.30;99.90;;;;;;5094679;28;20044;-77
2024/01/12 07:36:08;;;;;;;28.30;4.67;;;2.30;99.90;;;;;;5094444;28;20040;-77
2024/01/12 07:38:34;;;;;;;31.80;5.60;;;2.30;99.90;;;;;;5094019;28;20131;-77
2024/01/12 07:41:00;;;;;;;23.65;3.90;;;2.20;99.90;;;;;;5094475;28;20280;-77
2024/01/12 07:43:30;;;;;;;20.83;4.27;;;2.30;99.90;;;;;;5094381;28;20468;-77
2024/01/12 07:45:56;;;;;;;27.38;5.20;;;2.30;99.90;;;;;;5093746;28;20052;-77
2024/01/12 07:48:22;;;;;;;27.98;4.57;;;2.40;99.90;;;;;;5093747;28;20058;-78
2024/01/12 07:50:48;;;;;;;24.50;4.73;;;2.30;99.90;;;;;;5094455;28;20060;-76
2024/01/12 07:53:14;;;;;;;22.98;3.92;;;2.40;99.90;;;;;;5093180;28;20052;-76
2024/01/12 07:55:40;;;;;;;27.67;4.47;;;2.40;99.90;;;;;;5094226;28;20379;-77
2024/01/12 07:58:06;;;;;;;25.57;4.53;;;2.40;99.90;;;;;;5093883;28;20475;-77
2024/01/12 08:00:32;;;;;;;21.40;3.97;;;2.40;99.90;;;;;;5094319;28;20040;-76
2024/01/12 08:02:57;;;;;;;15.73;3.60;;;2.40;99.90;;;;;;5094319;28;20461;-77
2024/01/12 08:05:23;;;;;;;18.90;4.53;;;2.40;99.90;;;;;;5093976;28;20059;-78
2024/01/12 08:07:49;;;;;;;23.17;3.90;;;2.50;99.90;;;;;;5094272;28;20071;-77
2024/01/12 08:10:16;;;;;;;25.95;3.90;;;2.40;99.90;;;;;;5093796;28;20051;-78
2024/01/12 08:12:42;;;;;;;18.35;3.30;;;2.40;99.90;;;;;;5093897;28;20062;-76
2024/01/12 08:15:11;;;;;;;22.83;4.25;;;2.40;99.90;;;;;;5093909;28;20140;-76
2024/01/12 08:17:40;;;;;;;27.07;4.33;;;2.50;99.90;;;;;;5093842;28;20086;-76
2024/01/12 08:20:06;;;;;;;20.38;3.55;;;2.50;99.90;;;;;;5092493;28;20126;-76
2024/01/12 08:22:32;;;;;;;25.10;3.63;;;2.50;99.90;;;;;;5093809;28;20127;-76
2024/01/12 08:24:59;;;;;;;21.33;3.83;;;2.50;99.90;;;;;;5093665;28;20546;-76
2024/01/12 08:27:25;;;;;;;22.13;3.90;;;2.50;99.90;;;;;;5093483;28;20091;-76
2024/01/12 08:29:51;;;;;;;20.63;3.17;;;2.50;99.90;;;;;;5094020;28;20066;-77
2024/01/12 08:32:16;;;;;;;22.77;3.70;;;2.60;99.90;;;;;;5093589;28;20040;-77
2024/01/12 08:34:42;;;;;;;21.03;3.80;;;2.60;99.90;;;;;;5093824;28;20485;-76
2024/01/12 08:37:08;;;;;;;24.70;3.70;;;2.70;99.90;;;;;;5093235;28;20047;-75
2024/01/12 08:39:34;;;;;;;25.87;3.83;;;2.70;99.90;;;;;;5093492;28;20098;-75
2024/01/12 08:42:00;;;;;;;27.08;3.72;;;2.70;99.90;;;;;;5093377;28;20052;-75
2024/01/12 08:44:26;;;;;;;22.93;3.30;;;2.80;99.90;;;;;;5093411;28;20056;-75
2024/01/12 08:46:53;;;;;;;17.70;3.40;;;2.80;99.90;;;;;;5093737;28;20040;-75
2024/01/12 08:49:19;;;;;;;26.95;3.95;;;2.80;99.90;;;;;;5093057;28;20052;-76
2024/01/12 08:51:45;;;;;;;19.17;3.95;;;2.80;99.90;;;;;;5093097;28;20044;-76
2024/01/12 08:54:11;;;;;;;22.73;3.70;;;2.90;99.90;;;;;;5092997;28;20040;-75
2024/01/12 08:56:37;;;;;;;24.33;4.13;;;2.90;99.90;;;;;;5093057;28;20040;-75
2024/01/12 08:59:02;;;;;;;29.73;4.20;;;2.90;99.90;;;;;;5093352;28;20108;-76
2024/01/12 09:01:28;;;;;;;19.17;3.30;;;3.00;99.90;;;;;;5091994;28;20486;-77
2024/01/12 09:03:54;;;;;;;23.77;3.80;;;3.00;99.90;;;;;;5092861;28;20140;-82
2024/01/12 09:06:21;;;;;;;16.37;4.23;;;3.10;99.90;;;;;;5092493;28;20044;-78
2024/01/12 09:08:46;;;;;;;32.97;4.95;;;3.10;99.90;;;;;;5072808;28;20052;-78
2024/01/12 09:11:12;;;;;;;23.63;3.97;;;3.10;99.90;;;;;;5072101;28;20135;-78
2024/01/12 09:13:38;;;;;;;24.70;3.57;;;3.10;99.90;;;;;;5071882;28;20036;-78
2024/01/12 09:16:07;;;;;;;28.33;4.00;;;3.10;99.90;;;;;;5073018;28;20040;-78
2024/01/12 09:18:33;;;;;;;22.33;2.90;;;3.20;99.90;;;;;;5072761;28;20040;-79
2024/01/12 09:20:58;;;;;;;24.40;3.70;;;3.20;99.90;;;;;;5073065;28;20090;-78
2024/01/12 09:23:24;;;;;;;22.13;3.43;;;3.20;99.90;;;;;;5072625;28;20132;-78
2024/01/12 09:25:52;;;;;;;19.57;4.23;;;3.20;99.90;;;;;;5071665;28;20048;-79
2024/01/12 09:28:18;;;;;;;22.48;4.32;;;3.20;99.90;;;;;;5088384;28;20102;-78
2024/01/12 09:30:44;;;;;;;26.67;3.73;;;3.30;99.90;;;;;;5072802;28;20044;-78
2024/01/12 09:33:10;;;;;;;22.40;3.17;;;3.30;99.90;;;;;;5071798;28;20521;-78
2024/01/12 09:35:35;;;;;;;22.03;3.43;;;3.30;99.90;;;;;;5072404;28;20079;-78
2024/01/12 09:38:01;;;;;;;20.43;3.03;;;3.40;99.90;;;;;;5072667;28;20044;-79
2024/01/12 09:40:27;;;;;;;27.60;4.20;;;3.40;99.90;;;;;;5072348;28;20371;-78
2024/01/12 09:42:56;;;;;;;21.80;3.57;;;3.40;99.90;;;;;;5071540;28;20055;-79
2024/01/12 09:45:23;;;;;;;19.60;3.38;;;3.40;99.90;;;;;;5072562;28;20055;-79
2024/01/12 09:47:49;;;;;;;18.02;3.38;;;3.40;99.90;;;;;;5072569;28;20529;-79
2024/01/12 09:50:16;;;;;;;22.83;3.80;;;3.50;99.90;;;;;;5072358;28;20064;-78
2024/01/12 09:52:42;;;;;;;14.00;2.95;;;3.50;99.90;;;;;;5072526;28;20051;-79
2024/01/12 09:55:07;;;;;;;24.13;3.47;;;3.50;99.90;;;;;;5072614;28;20044;-79
2024/01/12 09:57:34;;;;;;;26.13;3.80;;;3.50;99.90;;;;;;5072399;28;20044;-78
2024/01/12 10:00:03;;;;;;;27.27;5.00;;;3.50;99.90;;;;;;5072498;28;20048;-79
2024/01/12 10:02:29;;;;;;;19.05;3.30;;;3.50;99.90;;;;;;5072135;28;20490;-78
2024/01/12 10:04:54;;;;;;;22.37;4.17;;;3.50;99.90;;;;;;5071411;28;20101;-79
2024/01/12 10:07:20;;;;;;;24.50;3.47;;;3.50;99.90;;;;;;5072012;28;20045;-79
2024/01/12 10:09:46;;;;;;;25.83;3.40;;;3.60;99.90;;;;;;5072890;28;20517;-79
2024/01/12 10:12:12;;;;;;;23.13;3.90;;;3.60;99.90;;;;;;5075296;28;20044;-79
2024/01/12 10:14:37;;;;;;;21.23;4.00;;;3.60;99.90;;;;;;5075768;28;20413;-79
2024/01/12 10:17:03;;;;;;;25.07;3.27;;;3.60;99.90;;;;;;5074814;28;20045;-79
2024/01/12 10:19:29;;;;;;;18.43;3.47;;;3.60;99.90;;;;;;5075736;28;20076;-79
2024/01/12 10:21:55;;;;;;;23.13;3.90;;;3.70;99.90;;;;;;5074723;28;20076;-79
2024/01/12 10:24:21;;;;;;;29.23;3.40;;;3.60;99.90;;;;;;5075894;28;20422;-79
2024/01/12 10:26:49;;;;;;;24.40;4.40;;;3.60;99.90;;;;;;5075842;28;20115;-79
2024/01/12 10:29:15;;;;;;;20.60;3.70;;;3.70;99.90;;;;;;5075589;28;20538;-79
2024/01/12 10:31:45;;;;;;;26.57;3.43;;;3.70;99.90;;;;;;5075414;28;20056;-79
2024/01/12 10:34:12;;;;;;;23.38;3.80;;;3.70;99.90;;;;;;5075352;28;20286;-79
2024/01/12 10:36:39;;;;;;;25.63;3.58;;;3.70;99.90;;;;;;5074639;28;20402;-81
2024/01/12 10:39:11;;;;;;;35.78;5.07;;;3.70;99.90;;;;;;5075704;28;20051;-80
2024/01/12 10:41:40;;;;;;;32.05;5.10;;;3.70;99.90;;;;;;5075407;28;20044;-75
2024/01/12 10:44:06;;;;;;;25.92;4.50;;;3.80;99.90;;;;;;5090199;28;20036;-76
2024/01/12 10:46:47;;;;;;;27.58;4.25;;;3.70;99.90;;;;;;5094784;28;20071;-78
2024/01/12 10:49:17;;;;;;;25.42;3.63;;;3.80;99.90;;;;;;5093481;28;20137;-78
2024/01/12 10:52:07;;;;;;;28.95;4.25;;;3.80;99.90;;;;;;5094969;28;20090;-77
2024/01/12 10:54:50;;;;;;;35.20;4.75;;;3.80;99.90;;;;;;5093519;28;20101;-78
2024/01/12 10:57:16;;;;;;;27.73;3.92;;;3.80;99.90;;;;;;5093808;28;20051;-79
2024/01/12 10:59:44;;;;;;;24.50;4.33;;;3.90;99.90;;;;;;5094555;28;20043;-77
2024/01/12 11:02:13;;;;;;;19.60;4.65;;;3.90;99.90;;;;;;5094778;28;20482;-78
2024/01/12 11:04:40;;;;;;;30.70;4.35;;;3.90;99.90;;;;;;5094479;28;20485;-77
2024/01/12 11:07:06;;;;;;;26.05;4.97;;;3.90;99.90;;;;;;5092361;28;20040;-81
2024/01/12 11:09:32;;;;;;;23.65;3.40;;;3.90;99.90;;;;;;5094543;28;20043;-80
2024/01/12 11:12:09;;;;;;;26.43;4.43;;;3.90;99.90;;;;;;5094457;28;20503;-78
2024/01/12 11:14:36;;;;;;;23.33;4.72;;;3.90;99.90;;;;;;5093401;28;20089;-80
2024/01/12 11:17:05;;;;;;;24.98;3.30;;;4.00;99.90;;;;;;5094508;28;20404;-79
2024/01/12 11:19:32;;;;;;;28.08;4.15;;;4.10;99.90;;;;;;5094315;28;20119;-77
2024/01/12 11:22:02;;;;;;;26.38;4.30;;;4.00;99.90;;;;;;5093425;28;20574;-82
2024/01/12 11:24:29;;;;;;;30.33;4.30;;;4.00;99.90;;;;;;5091900;28;20430;-81
2024/01/12 11:26:55;;;;;;;30.40;4.22;;;4.00;99.90;;;;;;5094532;28;20083;-79
2024/01/12 11:29:20;;;;;;;34.90;4.97;;;4.00;99.90;;;;;;5094597;28;20082;-78
2024/01/12 11:31:51;;;;;;;31.30;5.00;;;4.00;99.90;;;;;;5094451;28;20040;-76
2024/01/12 11:34:18;;;;;;;28.00;5.47;;;4.10;99.90;;;;;;5094612;28;20104;-76
2024/01/12 11:36:44;;;;;;;35.78;5.38;;;4.10;99.90;;;;;;5094194;28;20493;-80
2024/01/12 11:39:13;;;;;;;30.85;6.00;;;4.10;99.90;;;;;;5094480;28;20048;-80
2024/01/12 11:41:43;;;;;;;23.40;3.85;;;4.10;99.90;;;;;;5093562;28;20431;-81
2024/01/12 11:44:09;;;;;;;26.42;4.13;;;4.20;99.90;;;;;;5094813;28;20418;-79
2024/01/12 11:46:35;;;;;;;34.13;4.07;;;4.20;99.90;;;;;;5093385;28;20050;-76
2024/01/12 11:49:04;;;;;;;29.37;4.40;;;4.20;99.90;;;;;;5094371;28;20378;-78
2024/01/12 11:51:30;;;;;;;29.52;3.95;;;4.20;99.90;;;;;;5094464;28;20408;-76
2024/01/12 11:53:56;;;;;;;34.58;6.20;;;4.20;99.90;;;;;;5094219;28;20134;-77
2024/01/12 11:56:23;;;;;;;28.87;4.57;;;4.20;99.90;;;;;;5094383;28;20198;-77
2024/01/12 11:58:51;;;;;;;26.88;4.43;;;4.20;99.90;;;;;;5094200;28;20055;-77
2024/01/12 12:01:17;;;;;;;38.90;6.32;;;4.30;99.90;;;;;;5094285;28;20109;-77
2024/01/12 12:03:45;;;;;;;29.98;6.32;;;4.30;99.90;;;;;;5093973;28;20048;-77
2024/01/12 12:06:11;;;;;;;32.60;6.15;;;4.30;99.90;;;;;;5093994;28;20066;-81
2024/01/12 12:08:39;;;;;;;26.60;5.32;;;4.30;99.90;;;;;;5094057;28;20044;-74
2024/01/12 12:11:05;;;;;;;25.55;5.25;;;4.30;99.90;;;;;;5094118;28;20052;-83
2024/01/12 12:13:33;;;;;;;31.20;7.03;;;4.30;99.90;;;;;;5092964;28;20397;-77
2024/01/12 12:15:59;;;;;;;27.45;6.68;;;4.30;99.90;;;;;;5093839;28;20044;-76
2024/01/12 12:18:25;;;;;;;26.80;6.73;;;4.40;99.90;;;;;;5094096;28;20051;-76
2024/01/12 12:20:50;;;;;;;23.80;4.50;;;4.40;99.90;;;;;;5093567;28;20516;-77
2024/01/12 12:23:16;;;;;;;30.83;4.93;;;4.40;99.90;;;;;;5093853;28;20131;-78
2024/01/12 12:25:44;;;;;;;27.47;8.20;;;4.40;99.90;;;;;;5092560;28;20087;-77
2024/01/12 12:28:11;;;;;;;28.08;5.88;;;4.40;99.90;;;;;;5093731;28;20052;-78
2024/01/12 12:30:39;;;;;;;33.22;5.18;;;4.40;99.90;;;;;;5092577;28;20055;-77
2024/01/12 12:33:08;;;;;;;32.13;5.55;;;4.50;99.90;;;;;;5093295;28;20497;-77
2024/01/12 12:35:34;;;;;;;27.20;5.07;;;4.40;99.90;;;;;;5093253;28;20611;-77
2024/01/12 12:38:03;;;;;;;25.67;3.83;;;4.50;99.90;;;;;;5093469;28;20044;-77
2024/01/12 12:40:31;;;;;;;20.33;3.80;;;4.50;99.90;;;;;;5093501;28;20044;-78